Time;durP1;ratioP1;P1;durP2;ratioP2;P2;SDS_P1;SDS_P2;PMS_P1;PMS_P2;Temp;Humidity;BMP_temperature;BMP_pressure;BME280_temperature;BME280_humidity;BME280_pressure;Samples;Min_cycle;Max_cycle;Signal;HPM_P1;HPM_P2
2023/05/12 00:01:26;;;;;;;3.30;2.03;;;13.60;99.90;;;;;;5096023;28;20024;-74
2023/05/12 00:03:52;;;;;;;3.30;1.95;;;13.50;99.90;;;;;;5095949;28;20027;-74
2023/05/12 00:06:19;;;;;;;3.92;2.20;;;13.60;99.90;;;;;;5095910;28;20104;-74
2023/05/12 00:08:45;;;;;;;2.47;1.55;;;13.70;99.90;;;;;;5121315;22;20023;-71
2023/05/12 00:11:10;;;;;;;2.35;1.85;;;13.60;99.90;;;;;;5140790;27;20026;-70
2023/05/12 00:13:36;;;;;;;2.50;1.90;;;13.50;99.90;;;;;;5140955;27;20023;-70
2023/05/12 00:16:02;;;;;;;2.53;1.90;;;13.40;99.90;;;;;;5140992;27;20019;-70
2023/05/12 00:18:28;;;;;;;2.75;1.65;;;13.40;99.90;;;;;;5141059;27;20031;-70
2023/05/12 00:20:54;;;;;;;2.75;1.80;;;13.40;99.90;;;;;;5140645;27;20026;-70
2023/05/12 00:23:19;;;;;;;1.95;1.30;;;13.40;99.90;;;;;;5141438;27;20116;-73
2023/05/12 00:25:45;;;;;;;2.80;1.80;;;13.20;99.90;;;;;;5140436;27;20019;-73
2023/05/12 00:28:11;;;;;;;4.90;1.55;;;13.30;99.90;;;;;;5141078;27;20027;-73
2023/05/12 00:30:36;;;;;;;5.38;1.40;;;13.30;99.90;;;;;;5140270;27;20015;-73
2023/05/12 00:33:02;;;;;;;2.13;1.38;;;13.20;99.90;;;;;;5141161;27;20033;-73
2023/05/12 00:35:28;;;;;;;2.88;1.25;;;13.00;99.90;;;;;;5140383;27;20023;-73
2023/05/12 00:37:53;;;;;;;4.18;2.45;;;13.00;99.90;;;;;;5140456;27;20034;-73
2023/05/12 00:40:19;;;;;;;3.80;2.40;;;13.00;99.90;;;;;;5141358;27;20038;-81
2023/05/12 00:42:44;;;;;;;2.22;1.70;;;13.00;99.90;;;;;;5140650;27;20034;-81
2023/05/12 00:45:10;;;;;;;6.95;2.45;;;13.00;99.90;;;;;;5140477;27;20027;-73
2023/05/12 00:47:36;;;;;;;3.50;2.25;;;13.00;99.90;;;;;;5140843;27;20031;-73
2023/05/12 00:50:03;;;;;;;4.63;1.77;;;12.90;99.90;;;;;;5140035;27;20045;-73
2023/05/12 00:52:29;;;;;;;5.57;1.90;;;12.90;99.90;;;;;;5140031;27;20114;-73
2023/05/12 00:54:55;;;;;;;5.68;2.42;;;12.90;99.90;;;;;;5139957;27;20050;-73
2023/05/12 00:57:22;;;;;;;2.50;1.38;;;13.00;99.90;;;;;;5140696;27;20087;-73
2023/05/12 00:59:47;;;;;;;2.13;1.30;;;13.00;99.90;;;;;;5141206;27;20106;-81
2023/05/12 01:02:13;;;;;;;7.53;1.42;;;12.90;99.90;;;;;;5141221;27;20050;-82
2023/05/12 01:04:39;;;;;;;1.52;1.42;;;13.10;99.90;;;;;;5140929;27;20031;-81
2023/05/12 01:07:24;;;;;;;7.57;1.65;;;13.10;99.90;;;;;;5139825;27;20122;-82
2023/05/12 01:09:57;;;;;;;2.97;1.75;;;13.10;99.90;;;;;;5145361;27;20031;-81
2023/05/12 01:12:23;;;;;;;2.90;1.27;;;13.20;99.90;;;;;;5144347;27;20124;-81
2023/05/12 01:14:51;;;;;;;2.67;1.92;;;13.20;99.90;;;;;;5140391;27;20015;-81
2023/05/12 01:17:20;;;;;;;2.10;1.55;;;13.20;99.90;;;;;;5140477;27;20024;-82
2023/05/12 01:19:58;;;;;;;3.28;1.60;;;13.10;99.90;;;;;;5140293;27;20029;-82
2023/05/12 01:22:27;;;;;;;2.00;1.77;;;13.20;99.90;;;;;;5139175;27;20096;-81
2023/05/12 01:25:03;;;;;;;3.05;2.05;;;13.20;99.90;;;;;;5140055;27;20023;-81
2023/05/12 01:27:30;;;;;;;4.72;1.70;;;13.10;99.90;;;;;;5139417;27;20023;-81
2023/05/12 01:29:58;;;;;;;5.20;2.47;;;13.20;99.90;;;;;;5139500;27;20031;-81
2023/05/12 01:32:25;;;;;;;4.30;1.65;;;13.20;99.90;;;;;;5139047;27;20015;-81
2023/05/12 01:34:50;;;;;;;2.67;1.73;;;13.00;99.90;;;;;;5140232;27;20069;-81
2023/05/12 01:37:16;;;;;;;2.15;1.88;;;13.10;99.90;;;;;;5139061;27;20020;-73
2023/05/12 01:39:42;;;;;;;8.15;2.00;;;13.10;99.90;;;;;;5139857;27;20031;-73
2023/05/12 01:42:07;;;;;;;3.15;1.60;;;13.10;99.90;;;;;;5138997;27;20023;-73
2023/05/12 01:44:33;;;;;;;2.83;1.88;;;13.00;99.90;;;;;;5138831;27;20048;-73
2023/05/12 01:47:00;;;;;;;2.90;2.00;;;13.10;99.90;;;;;;5139613;27;20034;-81
2023/05/12 01:49:26;;;;;;;3.28;2.03;;;13.00;99.90;;;;;;5139124;27;20020;-82
2023/05/12 01:51:52;;;;;;;5.03;1.85;;;13.00;99.90;;;;;;5138793;27;20026;-82
2023/05/12 01:54:17;;;;;;;3.92;1.98;;;13.00;99.90;;;;;;5139166;27;20048;-81
2023/05/12 01:56:43;;;;;;;2.58;1.80;;;13.10;99.90;;;;;;5138706;27;20016;-81
2023/05/12 01:59:08;;;;;;;5.20;1.85;;;12.90;99.90;;;;;;5138645;27;20029;-81
2023/05/12 02:01:34;;;;;;;4.03;2.10;;;12.80;99.90;;;;;;5138697;27;20023;-81
2023/05/12 02:03:59;;;;;;;3.22;2.20;;;12.80;99.90;;;;;;5138947;27;20019;-81
2023/05/12 02:06:26;;;;;;;6.20;2.15;;;12.80;99.90;;;;;;5138624;27;20019;-81
2023/05/12 02:08:51;;;;;;;8.50;1.80;;;12.80;99.90;;;;;;5138263;27;20031;-82
2023/05/12 02:11:17;;;;;;;10.73;3.70;;;12.80;99.90;;;;;;5138443;27;20118;-81
2023/05/12 02:13:45;;;;;;;2.40;2.05;;;12.90;99.90;;;;;;5138358;27;20019;-81
2023/05/12 02:16:11;;;;;;;4.18;2.58;;;12.90;99.90;;;;;;5138618;27;20023;-73
2023/05/12 02:18:37;;;;;;;5.07;2.70;;;13.00;99.90;;;;;;5138248;27;20072;-73
2023/05/12 02:21:02;;;;;;;4.35;2.70;;;13.00;99.90;;;;;;5138178;27;20031;-73
2023/05/12 02:23:28;;;;;;;3.83;2.78;;;13.00;99.90;;;;;;5138776;27;20030;-73
2023/05/12 02:25:53;;;;;;;3.83;2.90;;;13.00;99.90;;;;;;5138521;27;20023;-73
2023/05/12 02:28:19;;;;;;;8.00;3.20;;;13.00;99.90;;;;;;5138054;27;20114;-73
2023/05/12 02:30:47;;;;;;;3.25;2.45;;;12.90;99.90;;;;;;5138541;27;20115;-82
2023/05/12 02:33:13;;;;;;;10.98;5.43;;;12.80;99.90;;;;;;5138018;27;20023;-73
2023/05/12 02:35:39;;;;;;;21.42;8.52;;;12.90;99.90;;;;;;5138255;27;20030;-73
2023/05/12 02:38:04;;;;;;;10.07;4.53;;;12.80;99.90;;;;;;5138727;27;20019;-73
2023/05/12 02:40:30;;;;;;;7.18;3.22;;;12.90;99.90;;;;;;5137829;27;20058;-73
2023/05/12 02:42:55;;;;;;;5.18;2.88;;;12.80;99.90;;;;;;5137820;27;20023;-73
2023/05/12 02:45:21;;;;;;;7.22;2.83;;;12.80;99.90;;;;;;5138768;27;20027;-81
2023/05/12 02:47:47;;;;;;;4.95;3.38;;;12.80;99.90;;;;;;5138036;27;20058;-81
2023/05/12 02:50:13;;;;;;;4.38;3.10;;;12.80;99.90;;;;;;5137646;27;20023;-81
2023/05/12 02:52:38;;;;;;;5.57;3.35;;;12.90;99.90;;;;;;5137893;27;20050;-81
2023/05/12 02:55:04;;;;;;;6.78;3.28;;;12.90;99.90;;;;;;5137709;27;20114;-81
2023/05/12 02:57:32;;;;;;;5.85;3.55;;;12.90;99.90;;;;;;5138525;27;20042;-81
2023/05/12 02:59:58;;;;;;;9.73;3.58;;;13.00;99.90;;;;;;5137454;27;20075;-81
2023/05/12 03:02:24;;;;;;;6.18;3.75;;;13.00;99.90;;;;;;5138692;27;20094;-81
2023/05/12 03:04:50;;;;;;;6.75;3.72;;;13.10;99.90;;;;;;5138210;27;20230;-81
2023/05/12 03:07:15;;;;;;;6.30;4.10;;;13.10;99.90;;;;;;5137335;27;20041;-81
2023/05/12 03:09:41;;;;;;;4.78;3.45;;;13.00;99.90;;;;;;5137710;27;20023;-82
2023/05/12 03:12:07;;;;;;;7.72;4.05;;;13.10;99.90;;;;;;5138673;27;20045;-81
2023/05/12 03:14:32;;;;;;;5.85;3.47;;;13.10;99.90;;;;;;5137531;27;20076;-82
2023/05/12 03:16:58;;;;;;;5.65;3.90;;;13.10;99.90;;;;;;5146937;27;20021;-81
2023/05/12 03:19:24;;;;;;;4.70;3.75;;;13.10;99.90;;;;;;5138310;27;20023;-81
2023/05/12 03:21:49;;;;;;;7.88;3.88;;;13.10;99.90;;;;;;5138545;27;20065;-81
2023/05/12 03:24:15;;;;;;;6.43;3.38;;;13.10;99.90;;;;;;5138318;28;20023;-81
2023/05/12 03:26:40;;;;;;;6.43;4.00;;;13.10;99.90;;;;;;5137501;28;20034;-81
2023/05/12 03:29:06;;;;;;;6.43;3.80;;;13.10;99.90;;;;;;5137455;28;20027;-82
2023/05/12 03:31:32;;;;;;;8.07;3.58;;;13.10;99.90;;;;;;5137498;28;20051;-81
2023/05/12 03:33:58;;;;;;;6.43;3.95;;;13.10;99.90;;;;;;5138103;27;20022;-81
2023/05/12 03:36:23;;;;;;;5.18;3.63;;;13.10;99.90;;;;;;5137400;28;20052;-81
2023/05/12 03:38:49;;;;;;;6.18;3.53;;;13.10;99.90;;;;;;5137107;28;20064;-81
2023/05/12 03:41:16;;;;;;;6.22;4.32;;;13.00;99.90;;;;;;5137038;28;20106;-81
2023/05/12 03:43:41;;;;;;;4.80;3.83;;;13.10;99.90;;;;;;5137395;27;20110;-81
2023/05/12 03:46:07;;;;;;;5.57;3.70;;;13.10;99.90;;;;;;5141679;27;20106;-81
2023/05/12 03:48:33;;;;;;;7.38;4.40;;;13.10;99.90;;;;;;5141086;27;20086;-82
2023/05/12 03:50:58;;;;;;;7.82;4.03;;;13.10;99.90;;;;;;5141568;27;20025;-81
2023/05/12 03:53:24;;;;;;;4.30;3.42;;;13.10;99.90;;;;;;5141285;27;20051;-81
2023/05/12 03:55:50;;;;;;;6.85;3.80;;;13.10;99.90;;;;;;5142043;27;20076;-82
2023/05/12 03:58:16;;;;;;;7.75;3.83;;;13.00;99.90;;;;;;5141223;27;20016;-81
2023/05/12 04:00:41;;;;;;;6.07;3.55;;;13.00;99.90;;;;;;5141916;27;20094;-81
2023/05/12 04:03:07;;;;;;;5.65;3.92;;;13.00;99.90;;;;;;5140963;27;20043;-81
2023/05/12 04:05:33;;;;;;;8.20;4.00;;;12.90;99.90;;;;;;5140950;27;20023;-82
2023/05/12 04:07:58;;;;;;;6.97;3.83;;;13.00;99.90;;;;;;5140920;27;20110;-81
2023/05/12 04:10:24;;;;;;;6.15;3.40;;;12.90;99.90;;;;;;5140726;27;20023;-81
2023/05/12 04:12:51;;;;;;;7.32;4.00;;;12.80;99.90;;;;;;5140561;27;20019;-81
2023/05/12 04:15:16;;;;;;;5.63;3.78;;;12.90;99.90;;;;;;5141641;27;20047;-73
2023/05/12 04:17:42;;;;;;;4.93;3.60;;;13.00;99.90;;;;;;5140699;27;20023;-73
2023/05/12 04:20:08;;;;;;;10.52;4.13;;;13.00;99.90;;;;;;5140864;27;20023;-73
2023/05/12 04:22:33;;;;;;;11.13;4.47;;;13.10;99.90;;;;;;5140533;27;20054;-73
2023/05/12 04:24:59;;;;;;;5.50;4.00;;;13.10;99.90;;;;;;5140539;27;20016;-72
2023/05/12 04:27:24;;;;;;;5.75;3.63;;;13.20;99.90;;;;;;5141244;27;20023;-73
2023/05/12 04:29:50;;;;;;;8.07;4.97;;;13.10;99.90;;;;;;5140785;27;20027;-73
2023/05/12 04:32:16;;;;;;;5.80;4.20;;;13.10;99.90;;;;;;5140717;27;20019;-73
2023/05/12 04:34:41;;;;;;;6.70;4.00;;;13.10;99.90;;;;;;5140344;27;20020;-73
2023/05/12 04:37:07;;;;;;;6.90;4.38;;;13.10;99.90;;;;;;5140565;27;20034;-73
2023/05/12 04:39:32;;;;;;;5.57;4.30;;;13.10;99.90;;;;;;5141075;27;20027;-73
2023/05/12 04:42:00;;;;;;;5.30;3.78;;;13.10;99.90;;;;;;5141227;27;20023;-73
2023/05/12 04:44:26;;;;;;;5.80;3.47;;;13.10;99.90;;;;;;5140183;27;20027;-73
2023/05/12 04:46:54;;;;;;;7.75;4.20;;;13.10;99.90;;;;;;5140383;27;20066;-73
2023/05/12 04:49:21;;;;;;;9.05;4.95;;;13.10;99.90;;;;;;5141113;27;20054;-73
2023/05/12 04:51:46;;;;;;;6.75;3.85;;;13.10;99.90;;;;;;5140788;27;20019;-73
2023/05/12 04:54:12;;;;;;;5.60;4.28;;;13.10;99.90;;;;;;5140176;27;20075;-73
2023/05/12 04:56:38;;;;;;;6.55;4.20;;;13.10;99.90;;;;;;5138517;27;20063;-72
2023/05/12 04:59:03;;;;;;;5.10;3.78;;;13.10;99.90;;;;;;5140871;27;20030;-72
2023/05/12 05:01:29;;;;;;;6.88;4.47;;;13.20;99.90;;;;;;5141305;27;20023;-72
2023/05/12 05:03:55;;;;;;;7.47;4.10;;;13.20;99.90;;;;;;5139667;27;20023;-73
2023/05/12 05:06:20;;;;;;;6.07;4.30;;;13.20;99.90;;;;;;5139778;27;20027;-72
2023/05/12 05:08:45;;;;;;;11.52;3.97;;;13.10;99.90;;;;;;5139636;27;20027;-73
2023/05/12 05:11:11;;;;;;;6.43;3.97;;;13.20;99.90;;;;;;5140762;27;20072;-73
2023/05/12 05:13:36;;;;;;;7.10;3.80;;;13.20;99.90;;;;;;5140504;27;20068;-73
2023/05/12 05:16:02;;;;;;;5.35;3.83;;;13.20;99.90;;;;;;5139761;27;20019;-73
2023/05/12 05:18:28;;;;;;;5.03;3.30;;;13.20;99.90;;;;;;5140287;27;20026;-73
2023/05/12 05:20:54;;;;;;;6.55;4.22;;;13.10;99.90;;;;;;5139369;27;20057;-73
2023/05/12 05:23:19;;;;;;;6.10;3.63;;;13.20;99.90;;;;;;5139758;27;20110;-73
2023/05/12 05:25:45;;;;;;;6.65;3.85;;;13.10;99.90;;;;;;5140286;27;20031;-72
2023/05/12 05:28:10;;;;;;;9.20;3.75;;;13.10;99.90;;;;;;5140132;27;20052;-72
2023/05/12 05:30:36;;;;;;;8.65;3.50;;;13.20;99.90;;;;;;5139210;27;20024;-73
2023/05/12 05:33:02;;;;;;;6.60;4.30;;;13.20;99.90;;;;;;5139562;27;20019;-72
2023/05/12 05:35:27;;;;;;;5.63;3.92;;;13.20;99.90;;;;;;5139961;27;20019;-73
2023/05/12 05:37:53;;;;;;;10.32;4.03;;;13.10;99.90;;;;;;5139139;27;20153;-73
2023/05/12 05:40:19;;;;;;;5.72;3.95;;;13.00;99.90;;;;;;5139297;27;20088;-73
2023/05/12 05:42:44;;;;;;;10.63;4.43;;;13.10;99.90;;;;;;5139096;27;20072;-73
2023/05/12 05:45:11;;;;;;;5.90;4.15;;;13.10;99.90;;;;;;5138926;27;20085;-73
2023/05/12 05:47:37;;;;;;;12.45;4.20;;;13.10;99.90;;;;;;5139787;27;20027;-73
2023/05/12 05:50:03;;;;;;;12.88;5.07;;;13.20;99.90;;;;;;5139081;27;20026;-72
2023/05/12 05:52:29;;;;;;;7.25;3.97;;;13.20;99.90;;;;;;5138818;27;20019;-73
2023/05/12 05:54:54;;;;;;;8.48;3.72;;;13.20;99.90;;;;;;5138763;27;20068;-73
2023/05/12 05:57:20;;;;;;;5.18;3.92;;;13.20;99.90;;;;;;5139271;27;20019;-73
2023/05/12 05:59:45;;;;;;;7.22;4.35;;;13.30;99.90;;;;;;5139378;27;20160;-73
2023/05/12 06:02:11;;;;;;;6.50;4.07;;;13.30;99.90;;;;;;5139013;27;20068;-73
2023/05/12 06:04:37;;;;;;;9.73;4.65;;;13.40;99.90;;;;;;5139612;27;20025;-73
2023/05/12 06:07:02;;;;;;;9.35;3.90;;;13.40;99.90;;;;;;5138297;27;20023;-73
2023/05/12 06:09:28;;;;;;;10.05;4.38;;;13.40;99.90;;;;;;5138148;22;20030;-73
2023/05/12 06:11:53;;;;;;;6.63;3.85;;;13.50;99.90;;;;;;5037312;28;20068;-75
2023/05/12 06:14:19;;;;;;;7.75;4.50;;;13.40;99.90;;;;;;5037286;28;20026;-75
2023/05/12 06:16:44;;;;;;;5.85;4.15;;;13.50;99.90;;;;;;5038104;28;20093;-74
2023/05/12 06:19:11;;;;;;;5.78;4.10;;;13.50;99.90;;;;;;5037707;28;20025;-75
2023/05/12 06:21:36;;;;;;;8.65;3.85;;;13.50;99.90;;;;;;5037101;28;20028;-74
2023/05/12 06:24:02;;;;;;;10.93;4.32;;;13.50;99.90;;;;;;5037498;28;20120;-73
2023/05/12 06:26:28;;;;;;;7.50;4.30;;;13.50;99.90;;;;;;5037163;28;20025;-73
2023/05/12 06:28:53;;;;;;;5.00;3.33;;;13.60;99.90;;;;;;5037786;28;20026;-73
2023/05/12 06:31:19;;;;;;;8.10;4.40;;;13.60;99.90;;;;;;5037826;28;20036;-73
2023/05/12 06:33:44;;;;;;;7.63;3.97;;;13.60;99.90;;;;;;5037490;28;20021;-72
2023/05/12 06:36:11;;;;;;;6.00;3.50;;;13.60;99.90;;;;;;5037742;28;20021;-73
2023/05/12 06:38:36;;;;;;;4.97;4.03;;;13.60;99.90;;;;;;5037818;28;20022;-74
2023/05/12 06:41:02;;;;;;;5.70;4.05;;;13.70;99.90;;;;;;5036605;28;20029;-74
2023/05/12 06:43:28;;;;;;;8.48;3.90;;;13.80;99.90;;;;;;5037655;28;20025;-74
2023/05/12 06:45:55;;;;;;;5.50;3.83;;;13.70;99.90;;;;;;5036919;28;20116;-74
2023/05/12 06:48:21;;;;;;;4.90;3.45;;;13.80;99.90;;;;;;5037081;28;20026;-73
2023/05/12 06:50:47;;;;;;;9.57;4.35;;;13.80;99.90;;;;;;5037438;28;20021;-74
2023/05/12 06:53:13;;;;;;;8.18;4.63;;;13.90;99.90;;;;;;5037391;28;20109;-74
2023/05/12 06:55:39;;;;;;;7.70;4.30;;;13.90;99.90;;;;;;5036475;28;20021;-74
2023/05/12 06:58:04;;;;;;;7.43;4.70;;;13.90;99.90;;;;;;5036872;28;20029;-74
2023/05/12 07:00:30;;;;;;;6.57;4.25;;;13.90;99.90;;;;;;5037269;28;20025;-74
2023/05/12 07:02:56;;;;;;;10.35;4.85;;;13.90;99.90;;;;;;5036591;28;20030;-74
2023/05/12 07:05:21;;;;;;;8.70;4.30;;;13.90;99.90;;;;;;5036459;28;20029;-74
2023/05/12 07:07:47;;;;;;;6.68;4.20;;;13.90;99.90;;;;;;5036292;28;20061;-73
2023/05/12 07:10:12;;;;;;;8.35;4.13;;;13.90;99.90;;;;;;5036448;28;20033;-74
2023/05/12 07:12:38;;;;;;;7.15;4.32;;;13.90;99.90;;;;;;5036391;28;20114;-74
2023/05/12 07:15:04;;;;;;;4.78;3.58;;;13.80;99.90;;;;;;5037071;28;20017;-74
2023/05/12 07:17:30;;;;;;;6.82;3.35;;;13.90;99.90;;;;;;5037334;28;20045;-74
2023/05/12 07:19:55;;;;;;;6.03;4.18;;;13.90;99.90;;;;;;5036570;28;20088;-75
2023/05/12 07:22:22;;;;;;;7.53;4.93;;;13.90;99.90;;;;;;5036539;28;20029;-78
2023/05/12 07:24:48;;;;;;;5.65;4.05;;;13.90;99.90;;;;;;5037218;28;20045;-77
2023/05/12 07:27:13;;;;;;;7.28;3.65;;;13.90;99.90;;;;;;5036173;28;20080;-77
2023/05/12 07:29:39;;;;;;;7.95;3.97;;;13.90;99.90;;;;;;5036678;28;20071;-77
2023/05/12 07:32:05;;;;;;;4.97;3.17;;;13.90;99.90;;;;;;5036463;28;20079;-77
2023/05/12 07:34:32;;;;;;;3.90;3.30;;;14.00;99.90;;;;;;5036059;28;20028;-77
2023/05/12 07:37:00;;;;;;;6.32;3.75;;;14.10;99.90;;;;;;5036930;28;20018;-77
2023/05/12 07:39:25;;;;;;;8.25;4.82;;;14.10;99.90;;;;;;5037070;28;20024;-77
2023/05/12 07:41:52;;;;;;;6.18;3.47;;;14.20;99.90;;;;;;5036995;28;20038;-77
2023/05/12 07:44:18;;;;;;;5.35;3.67;;;14.30;99.90;;;;;;5036007;28;20018;-77
2023/05/12 07:46:44;;;;;;;6.90;3.55;;;14.20;99.90;;;;;;5035862;28;20144;-76
2023/05/12 07:49:10;;;;;;;8.25;3.38;;;14.10;99.90;;;;;;5035873;28;20033;-76
2023/05/12 07:51:35;;;;;;;5.18;4.13;;;14.30;99.90;;;;;;5036835;28;20045;-77
2023/05/12 07:54:01;;;;;;;7.68;4.03;;;14.40;99.90;;;;;;5037489;28;20026;-77
2023/05/12 07:56:27;;;;;;;4.45;3.55;;;14.30;99.90;;;;;;5035921;28;20021;-77
2023/05/12 07:58:52;;;;;;;4.75;2.88;;;14.30;99.90;;;;;;5036880;28;20037;-76
2023/05/12 08:01:18;;;;;;;6.32;3.50;;;14.30;99.90;;;;;;5036883;28;20029;-77
2023/05/12 08:03:43;;;;;;;7.20;3.70;;;14.40;99.90;;;;;;5035840;28;20032;-76
2023/05/12 08:06:09;;;;;;;4.32;3.05;;;14.50;99.90;;;;;;5036158;28;20021;-76
2023/05/12 08:08:35;;;;;;;5.38;3.65;;;14.50;99.90;;;;;;5036762;28;20022;-76
2023/05/12 08:11:01;;;;;;;7.72;4.63;;;14.50;99.90;;;;;;5036091;28;20029;-76
2023/05/12 08:13:26;;;;;;;7.88;4.32;;;14.60;99.90;;;;;;5035834;28;20022;-77
2023/05/12 08:15:52;;;;;;;5.45;4.45;;;14.70;99.90;;;;;;5036016;28;20025;-76
2023/05/12 08:18:17;;;;;;;7.53;4.47;;;14.70;99.90;;;;;;5036553;28;20025;-76
2023/05/12 08:20:43;;;;;;;5.75;3.63;;;14.70;99.90;;;;;;5036431;28;20116;-76
2023/05/12 08:23:08;;;;;;;5.78;3.97;;;14.70;99.90;;;;;;5035595;28;20112;-76
2023/05/12 08:25:35;;;;;;;6.45;3.97;;;14.70;99.90;;;;;;5036071;28;20021;-76
2023/05/12 08:28:01;;;;;;;9.43;4.20;;;14.70;99.90;;;;;;5036224;28;20089;-76
2023/05/12 08:30:27;;;;;;;5.47;4.22;;;14.80;99.90;;;;;;5037965;28;20033;-75
2023/05/12 08:32:54;;;;;;;6.75;4.85;;;14.80;99.90;;;;;;5040077;28;20026;-77
2023/05/12 08:35:19;;;;;;;7.00;4.78;;;14.90;99.90;;;;;;5039125;28;20029;-76
2023/05/12 08:37:45;;;;;;;11.73;5.03;;;14.90;99.90;;;;;;5039934;28;20026;-76
2023/05/12 08:40:16;;;;;;;7.90;4.95;;;14.90;99.90;;;;;;5038883;28;20037;-76
2023/05/12 08:42:46;;;;;;;5.30;3.90;;;14.90;99.90;;;;;;5039097;28;20108;-76
2023/05/12 08:45:12;;;;;;;13.25;5.03;;;14.90;99.90;;;;;;5038951;28;20033;-76
2023/05/12 08:47:37;;;;;;;9.20;4.70;;;14.80;99.90;;;;;;5038804;28;20025;-77
2023/05/12 08:50:04;;;;;;;6.45;4.95;;;14.90;99.90;;;;;;5039802;28;20096;-76
2023/05/12 08:52:34;;;;;;;6.95;4.70;;;14.80;99.90;;;;;;5039711;28;20021;-76
2023/05/12 08:55:00;;;;;;;10.27;5.00;;;14.90;99.90;;;;;;5039889;28;20025;-76
2023/05/12 08:57:26;;;;;;;4.78;3.80;;;15.00;99.90;;;;;;5038803;28;20025;-76
2023/05/12 08:59:54;;;;;;;6.68;4.50;;;15.00;99.90;;;;;;5039471;28;20040;-76
2023/05/12 09:02:21;;;;;;;8.32;4.30;;;15.00;99.90;;;;;;5038795;28;20032;-76
2023/05/12 09:04:47;;;;;;;6.28;4.45;;;15.10;99.90;;;;;;5038534;28;20021;-76
2023/05/12 09:07:14;;;;;;;11.55;5.07;;;15.00;99.90;;;;;;5039427;28;20026;-76
2023/05/12 09:09:44;;;;;;;10.20;4.70;;;15.00;99.90;;;;;;5038352;28;20040;-76
2023/05/12 09:12:14;;;;;;;9.20;4.47;;;15.00;99.90;;;;;;5040515;28;20010;-76
2023/05/12 09:14:40;;;;;;;6.93;4.38;;;15.10;99.90;;;;;;5039311;28;20056;-76
2023/05/12 09:17:06;;;;;;;8.38;4.65;;;15.00;99.90;;;;;;5038597;28;20049;-75
2023/05/12 09:19:33;;;;;;;8.40;5.40;;;15.10;99.90;;;;;;5038687;28;20018;-76
2023/05/12 09:21:59;;;;;;;8.55;4.70;;;15.00;99.90;;;;;;5039192;28;20018;-76
2023/05/12 09:24:38;;;;;;;8.15;4.72;;;14.90;99.90;;;;;;5039283;28;20028;-76
2023/05/12 09:27:05;;;;;;;10.88;5.25;;;15.00;99.90;;;;;;5038934;28;20024;-76
2023/05/12 09:29:32;;;;;;;7.13;4.95;;;15.00;99.90;;;;;;5038915;28;20045;-75
2023/05/12 09:32:03;;;;;;;5.82;3.63;;;15.00;99.90;;;;;;5038147;28;20051;-76
2023/05/12 09:34:39;;;;;;;12.27;4.57;;;14.90;99.90;;;;;;5038022;28;20037;-76
2023/05/12 09:37:06;;;;;;;7.53;4.03;;;15.10;99.90;;;;;;5038038;28;20032;-76
2023/05/12 09:39:32;;;;;;;5.72;4.28;;;15.10;99.90;;;;;;5038172;28;20026;-75
2023/05/12 09:41:58;;;;;;;11.82;4.50;;;15.20;99.90;;;;;;5037160;28;20021;-76
2023/05/12 09:44:25;;;;;;;7.90;4.78;;;15.30;99.90;;;;;;5038189;28;20025;-76
2023/05/12 09:46:52;;;;;;;6.45;4.53;;;15.40;99.90;;;;;;5038157;28;20029;-75
2023/05/12 09:49:19;;;;;;;7.55;4.78;;;15.40;99.90;;;;;;5038604;28;20029;-75
2023/05/12 09:51:45;;;;;;;6.30;3.90;;;15.50;99.90;;;;;;5038839;28;20048;-75
2023/05/12 09:54:11;;;;;;;7.03;4.07;;;15.50;99.90;;;;;;5038585;28;20056;-75
2023/05/12 09:56:37;;;;;;;7.43;4.68;;;15.50;99.90;;;;;;5037672;28;20018;-75
2023/05/12 09:59:04;;;;;;;4.90;3.78;;;15.60;99.90;;;;;;5038370;28;20040;-75
2023/05/12 10:01:30;;;;;;;6.82;3.95;;;15.50;99.90;;;;;;5037701;28;20124;-75
2023/05/12 10:03:57;;;;;;;6.07;4.63;;;15.60;99.90;;;;;;5037723;28;20075;-75
2023/05/12 10:06:27;;;;;;;7.75;3.78;;;15.60;99.90;;;;;;5037510;28;20123;-75
2023/05/12 10:09:27;;;;;;;5.28;4.05;;;15.60;99.90;;;;;;5037231;28;20313;-75
2023/05/12 10:11:55;;;;;;;6.00;3.90;;;15.60;99.90;;;;;;5037552;28;20033;-76
2023/05/12 10:14:22;;;;;;;7.10;3.92;;;15.60;99.90;;;;;;5037653;28;20043;-76
2023/05/12 10:16:49;;;;;;;8.25;4.43;;;15.60;99.90;;;;;;5037911;28;20026;-75
2023/05/12 10:19:14;;;;;;;9.60;4.30;;;15.60;99.90;;;;;;5037500;28;20030;-73
2023/05/12 10:21:46;;;;;;;7.93;4.18;;;15.70;99.90;;;;;;5037155;28;20032;-73
2023/05/12 10:24:17;;;;;;;4.18;3.50;;;15.60;99.90;;;;;;5038148;28;20029;-72
2023/05/12 10:26:43;;;;;;;6.47;3.97;;;15.60;99.90;;;;;;5037338;28;20044;-72
2023/05/12 10:29:10;;;;;;;6.28;3.80;;;15.70;99.90;;;;;;5037279;28;20029;-73
2023/05/12 10:31:36;;;;;;;7.75;3.75;;;15.80;99.90;;;;;;5038058;28;20018;-72
2023/05/12 10:34:02;;;;;;;8.65;4.28;;;15.80;99.90;;;;;;5036926;28;20049;-72
2023/05/12 10:36:28;;;;;;;5.70;4.15;;;15.90;99.90;;;;;;5037034;28;20085;-72
2023/05/12 10:38:55;;;;;;;7.55;3.67;;;15.90;99.90;;;;;;5036941;28;20067;-73
2023/05/12 10:41:31;;;;;;;7.38;4.18;;;15.90;99.90;;;;;;5036796;28;20033;-73
2023/05/12 10:43:57;;;;;;;5.18;3.70;;;16.00;99.90;;;;;;5036824;28;20124;-73
2023/05/12 10:46:25;;;;;;;8.35;4.13;;;16.00;99.90;;;;;;5036651;28;20065;-73
2023/05/12 10:49:04;;;;;;;6.63;3.70;;;16.00;99.90;;;;;;5037387;28;20048;-72
2023/05/12 10:51:32;;;;;;;6.15;4.13;;;16.00;99.90;;;;;;5037071;28;20022;-73
2023/05/12 10:54:03;;;;;;;6.30;3.40;;;16.00;99.90;;;;;;5035865;28;20026;-72
2023/05/12 10:56:42;;;;;;;8.60;3.58;;;16.10;99.90;;;;;;5036716;28;20017;-72
2023/05/12 10:59:22;;;;;;;4.90;3.67;;;16.20;99.90;;;;;;5037376;28;20096;-72
2023/05/12 11:02:13;;;;;;;5.03;3.42;;;16.20;99.90;;;;;;5037466;28;20025;-72
2023/05/12 11:04:52;;;;;;;6.45;3.67;;;16.30;99.90;;;;;;5037482;28;20021;-72
2023/05/12 11:07:32;;;;;;;10.52;3.30;;;16.30;99.90;;;;;;5036369;28;20034;-72
2023/05/12 11:10:02;;;;;;;6.95;3.13;;;16.40;99.90;;;;;;5036787;28;20108;-72
2023/05/12 11:12:36;;;;;;;3.63;2.80;;;16.60;99.90;;;;;;5036377;28;20033;-72
2023/05/12 11:15:02;;;;;;;4.47;2.90;;;16.80;99.90;;;;;;5037307;28;20022;-72
2023/05/12 11:17:28;;;;;;;5.65;3.25;;;17.00;99.90;;;;;;5037059;28;20048;-72
2023/05/12 11:19:54;;;;;;;4.20;2.92;;;17.00;99.90;;;;;;5036282;28;20093;-72
2023/05/12 11:22:22;;;;;;;10.15;2.92;;;17.00;99.90;;;;;;5036114;28;20026;-72
2023/05/12 11:24:49;;;;;;;5.47;3.20;;;17.00;99.90;;;;;;5036188;28;20030;-72
2023/05/12 11:27:17;;;;;;;4.03;2.55;;;17.00;99.90;;;;;;5036167;28;20029;-73
2023/05/12 11:29:45;;;;;;;3.20;2.72;;;16.90;99.90;;;;;;5036009;28;20072;-73
2023/05/12 11:32:14;;;;;;;4.47;2.72;;;17.00;99.90;;;;;;5036058;28;20052;-72
2023/05/12 11:34:40;;;;;;;7.78;2.95;;;17.00;99.90;;;;;;5036373;28;20025;-72
2023/05/12 11:37:06;;;;;;;5.63;3.03;;;17.00;99.90;;;;;;5036152;28;20025;-72
2023/05/12 11:39:32;;;;;;;5.25;2.80;;;17.10;99.90;;;;;;5035987;28;20026;-73
2023/05/12 11:42:08;;;;;;;7.07;3.33;;;17.20;99.90;;;;;;5035963;28;20030;-72
2023/05/12 11:44:34;;;;;;;13.25;2.97;;;17.30;99.90;;;;;;5036084;28;20025;-72
2023/05/12 11:47:01;;;;;;;4.15;2.80;;;17.30;99.90;;;;;;5035912;28;20116;-72
2023/05/12 11:49:27;;;;;;;3.60;2.83;;;17.40;99.90;;;;;;5035905;28;20022;-72
2023/05/12 11:51:56;;;;;;;4.88;2.28;;;17.50;99.90;;;;;;5036884;28;20018;-73
2023/05/12 11:54:22;;;;;;;5.05;2.20;;;17.70;99.90;;;;;;5036032;28;20018;-72
2023/05/12 11:56:50;;;;;;;3.58;2.90;;;17.90;99.90;;;;;;5035908;28;20022;-72
2023/05/12 11:59:28;;;;;;;3.15;2.60;;;18.00;99.90;;;;;;5035586;28;20025;-72
2023/05/12 12:01:54;;;;;;;8.85;2.90;;;18.20;99.90;;;;;;5037030;28;20025;-72
2023/05/12 12:04:37;;;;;;;9.65;2.67;;;18.20;99.90;;;;;;5036065;28;20021;-72
2023/05/12 12:07:04;;;;;;;6.85;3.22;;;18.40;99.90;;;;;;5039938;28;20022;-72
2023/05/12 12:09:39;;;;;;;5.32;2.55;;;18.40;99.90;;;;;;5070656;22;20056;-73
2023/05/12 12:12:06;;;;;;;4.50;2.85;;;18.60;99.90;;;;;;5121439;28;20132;-73
2023/05/12 12:14:32;;;;;;;4.00;2.88;;;18.80;99.90;;;;;;5121561;28;20020;-74
2023/05/12 12:16:59;;;;;;;5.63;2.70;;;18.80;99.90;;;;;;5120495;28;20020;-73
2023/05/12 12:19:26;;;;;;;3.45;2.78;;;18.80;99.90;;;;;;5120044;28;20024;-73
2023/05/12 12:21:52;;;;;;;4.30;2.70;;;18.80;99.90;;;;;;5120150;28;20019;-73
2023/05/12 12:24:18;;;;;;;7.22;2.75;;;18.80;99.90;;;;;;5120441;28;20069;-73
2023/05/12 12:26:43;;;;;;;6.68;3.05;;;18.70;99.90;;;;;;5120951;28;20024;-72
2023/05/12 12:29:09;;;;;;;5.00;2.58;;;18.60;99.90;;;;;;5120933;28;20059;-73
2023/05/12 12:31:35;;;;;;;8.98;3.00;;;18.60;99.90;;;;;;5120598;28;20055;-73
2023/05/12 12:34:04;;;;;;;3.05;2.40;;;18.60;99.90;;;;;;5119872;28;20024;-73
2023/05/12 12:36:31;;;;;;;6.75;2.38;;;18.60;99.90;;;;;;5119715;28;20103;-73
2023/05/12 12:38:56;;;;;;;2.63;2.30;;;18.70;99.90;;;;;;5120153;28;20023;-73
2023/05/12 12:41:22;;;;;;;3.65;2.58;;;18.60;99.90;;;;;;5119530;28;20027;-73
2023/05/12 12:43:47;;;;;;;6.90;2.70;;;18.70;99.90;;;;;;5119572;28;20023;-73